createdAt,value
2018-11-11T00:00:09.817Z,61.41
2018-11-11T00:02:37.888Z,61.82
2018-11-11T00:05:06.965Z,61.78
2018-11-11T00:07:35.157Z,62.62
2018-11-11T00:10:03.338Z,63.03
2018-11-11T00:12:31.458Z,63.45
2018-11-11T00:14:59.610Z,63.26
2018-11-11T00:17:27.721Z,63.29
2018-11-11T00:19:55.838Z,63.40
2018-11-11T00:22:24.298Z,63.16
2018-11-11T00:24:52.638Z,62.76
2018-11-11T00:27:20.777Z,63.41
2018-11-11T00:29:48.884Z,64.06
2018-11-11T00:32:17.047Z,64.06
2018-11-11T00:34:45.199Z,65.03
2018-11-11T00:37:13.300Z,65.38
2018-11-11T00:39:41.474Z,66.27
2018-11-11T00:42:09.533Z,66.36
2018-11-11T00:44:37.619Z,66.71
2018-11-11T00:47:05.995Z,66.76
2018-11-11T00:49:34.232Z,66.78
2018-11-11T00:52:02.426Z,66.37
2018-11-11T00:54:30.496Z,66.30
2018-11-11T00:56:58.661Z,66.74
2018-11-11T00:59:26.751Z,67.11
2018-11-11T01:01:54.895Z,66.69
2018-11-11T01:04:23.229Z,66.60
2018-11-11T01:06:51.365Z,66.27
2018-11-11T01:09:19.639Z,65.99
2018-11-11T01:11:47.797Z,66.22
2018-11-11T01:14:15.894Z,66.25
2018-11-11T01:16:43.992Z,65.63
2018-11-11T01:19:12.207Z,65.17
2018-11-11T01:21:40.292Z,65.47
2018-11-11T01:24:08.482Z,65.25
2018-11-11T01:26:36.744Z,65.29
2018-11-11T01:29:05.185Z,65.17
2018-11-11T01:31:33.275Z,65.36
2018-11-11T01:34:01.401Z,65.34
2018-11-11T01:36:29.496Z,65.29
2018-11-11T01:38:57.618Z,65.34
2018-11-11T01:41:25.700Z,64.97
2018-11-11T01:43:53.786Z,64.92
2018-11-11T01:46:21.910Z,64.22
2018-11-11T01:48:49.997Z,64.74
2018-11-11T01:51:18.122Z,64.33
2018-11-11T01:53:46.204Z,64.40
2018-11-11T01:56:14.278Z,64.84
2018-11-11T01:58:42.366Z,65.17
2018-11-11T02:01:10.453Z,64.94
2018-11-11T02:03:38.576Z,64.70
2018-11-11T02:06:06.664Z,65.14
2018-11-11T02:08:34.751Z,64.94
2018-11-11T02:11:02.865Z,65.42
2018-11-11T02:13:31.037Z,65.39
2018-11-11T02:15:59.133Z,65.12
2018-11-11T02:18:27.279Z,65.46
2018-11-11T02:20:55.434Z,64.70
2018-11-11T02:23:23.482Z,64.85
2018-11-11T02:25:51.570Z,65.14
2018-11-11T02:28:19.649Z,65.02
2018-11-11T02:30:47.793Z,65.02
2018-11-11T02:33:15.914Z,65.32
2018-11-11T02:35:43.977Z,65.34
2018-11-11T02:38:12.045Z,64.97
2018-11-11T02:40:40.137Z,64.97
2018-11-11T02:43:08.237Z,65.06
2018-11-11T02:45:36.339Z,64.42
2018-11-11T02:48:04.464Z,64.18
2018-11-11T02:50:32.537Z,64.39
2018-11-11T02:53:00.633Z,63.77
2018-11-11T02:55:28.719Z,64.04
2018-11-11T02:57:56.804Z,63.85
2018-11-11T03:00:24.906Z,64.56
2018-11-11T03:02:52.969Z,65.84
2018-11-11T03:05:21.034Z,65.78
2018-11-11T03:07:49.144Z,66.01
2018-11-11T03:10:17.896Z,66.37
2018-11-11T03:12:46.794Z,65.83
2018-11-11T03:15:15.555Z,66.01
2018-11-11T03:17:43.654Z,65.63
2018-11-11T03:20:12.549Z,65.83
2018-11-11T03:22:40.652Z,66.07
2018-11-11T03:25:10.330Z,64.60
2018-11-11T03:27:38.491Z,63.59
2018-11-11T03:30:08.085Z,63.62
2018-11-11T03:32:36.211Z,63.69
2018-11-11T03:35:05.894Z,64.86
2018-11-11T03:37:34.004Z,66.14
2018-11-11T03:40:02.068Z,65.95
2018-11-11T03:42:30.176Z,65.86
2018-11-11T03:44:58.231Z,63.81
2018-11-11T03:47:26.376Z,63.56
2018-11-11T03:49:54.477Z,63.53
2018-11-11T03:52:22.563Z,63.55
2018-11-11T03:54:50.684Z,62.71
2018-11-11T03:57:18.755Z,62.63
2018-11-11T03:59:46.921Z,62.67
2018-11-11T04:02:14.999Z,62.59
2018-11-11T04:04:43.054Z,62.74
2018-11-11T04:07:11.153Z,62.56
2018-11-11T04:09:39.237Z,62.25
2018-11-11T04:12:07.318Z,61.95
2018-11-11T04:14:35.405Z,61.92
2018-11-11T04:17:03.481Z,61.97
2018-11-11T04:19:31.558Z,61.27
2018-11-11T04:22:03.960Z,61.96
2018-11-11T04:24:32.058Z,61.92
2018-11-11T04:27:00.133Z,61.73
2018-11-11T04:29:28.244Z,61.99
2018-11-11T04:31:56.305Z,61.60
2018-11-11T04:34:24.410Z,61.83
2018-11-11T04:36:52.528Z,62.81
2018-11-11T04:39:20.681Z,64.12
2018-11-11T04:41:48.709Z,64.05
2018-11-11T04:44:16.764Z,64.21
2018-11-11T04:46:44.849Z,64.29
2018-11-11T04:49:12.936Z,64.92
2018-11-11T04:51:41.025Z,64.98
2018-11-11T04:54:09.180Z,64.67
2018-11-11T04:56:37.277Z,63.79
2018-11-11T04:59:05.492Z,63.88
2018-11-11T05:01:33.882Z,64.31
2018-11-11T05:04:01.920Z,64.38
2018-11-11T05:06:30.027Z,63.91
2018-11-11T05:08:58.119Z,64.00
2018-11-11T05:11:26.190Z,63.77
2018-11-11T05:13:54.488Z,64.53
2018-11-11T05:16:22.605Z,64.05
2018-11-11T05:18:50.684Z,64.43
2018-11-11T05:21:18.822Z,64.48
2018-11-11T05:23:47.044Z,64.65
2018-11-11T05:26:15.099Z,64.24
2018-11-11T05:28:43.216Z,64.05
2018-11-11T05:31:11.291Z,64.01
2018-11-11T05:33:39.566Z,62.80
2018-11-11T05:36:07.653Z,62.06
2018-11-11T05:38:35.748Z,61.36
2018-11-11T05:41:03.836Z,61.54
2018-11-11T05:43:32.050Z,61.87
2018-11-11T05:46:00.161Z,61.36
2018-11-11T05:48:28.244Z,62.95
2018-11-11T05:50:56.377Z,63.77
2018-11-11T05:53:24.456Z,64.61
2018-11-11T05:55:52.528Z,64.99
2018-11-11T05:58:20.590Z,65.77
2018-11-11T06:00:48.729Z,66.36
2018-11-11T06:03:16.786Z,67.05
2018-11-11T06:05:44.897Z,66.79
2018-11-11T06:08:12.982Z,69.24
2018-11-11T06:10:41.107Z,70.24
2018-11-11T06:13:09.242Z,70.81
2018-11-11T06:15:37.348Z,70.76
2018-11-11T06:18:05.573Z,71.25
2018-11-11T06:20:33.674Z,71.21
2018-11-11T06:23:01.783Z,70.64
2018-11-11T06:25:29.839Z,71.25
2018-11-11T06:27:57.902Z,69.85
2018-11-11T06:30:25.952Z,71.32
2018-11-11T06:32:54.051Z,71.66
2018-11-11T06:35:22.184Z,69.54
2018-11-11T06:37:50.477Z,68.96
2018-11-11T06:40:18.605Z,68.98
2018-11-11T06:42:46.701Z,69.35
2018-11-11T06:45:15.736Z,69.47
2018-11-11T06:47:44.521Z,69.32
2018-11-11T06:50:13.757Z,69.46
2018-11-11T06:52:42.504Z,69.66
2018-11-11T06:55:10.900Z,69.61
2018-11-11T06:57:39.413Z,70.37
2018-11-11T07:00:09.533Z,70.31
2018-11-11T07:02:38.945Z,70.71
2018-11-11T07:05:08.302Z,70.17
2018-11-11T07:07:36.741Z,70.63
2018-11-11T07:10:05.484Z,70.50
2018-11-11T07:12:34.450Z,70.06
2018-11-11T07:15:02.519Z,69.68
2018-11-11T07:17:30.799Z,71.67
2018-11-11T07:19:58.914Z,72.44
2018-11-11T07:22:26.977Z,72.33
2018-11-11T07:24:55.096Z,72.60
2018-11-11T07:27:23.205Z,71.95
2018-11-11T07:29:51.281Z,72.42
2018-11-11T07:32:19.477Z,71.92
2018-11-11T07:34:47.549Z,71.43
2018-11-11T07:37:15.729Z,71.59
2018-11-11T07:39:43.821Z,71.18
2018-11-11T07:42:11.917Z,71.13
2018-11-11T07:44:40.044Z,70.82
2018-11-11T07:47:08.094Z,70.90
2018-11-11T07:49:36.186Z,70.79
2018-11-11T07:52:04.293Z,70.92
2018-11-11T07:54:32.421Z,70.20
2018-11-11T07:57:00.507Z,70.38
2018-11-11T07:59:28.644Z,70.18
2018-11-11T08:01:56.885Z,70.28
2018-11-11T08:04:24.932Z,70.02
2018-11-11T08:06:53.023Z,70.27
2018-11-11T08:09:21.085Z,70.22
2018-11-11T08:11:56.835Z,69.59
2018-11-11T08:14:25.413Z,69.78
2018-11-11T08:16:53.556Z,69.20
2018-11-11T08:19:21.574Z,68.78
2018-11-11T08:21:49.632Z,69.21
2018-11-11T08:24:18.196Z,69.17
2018-11-11T08:26:46.306Z,68.54
2018-11-11T08:29:14.393Z,68.59
2018-11-11T08:31:42.919Z,68.10
2018-11-11T08:34:11.022Z,67.99
2018-11-11T08:36:39.133Z,67.65
2018-11-11T08:39:09.695Z,67.43
2018-11-11T08:41:39.285Z,67.18
2018-11-11T08:44:07.705Z,66.67
2018-11-11T08:46:35.804Z,65.85
2018-11-11T08:49:03.864Z,66.67
2018-11-11T08:51:31.962Z,65.83
2018-11-11T08:54:00.025Z,66.14
2018-11-11T08:56:28.112Z,65.16
2018-11-11T08:58:56.172Z,65.27
2018-11-11T09:01:24.265Z,65.24
2018-11-11T09:03:52.677Z,64.95
2018-11-11T09:06:21.359Z,64.58
2018-11-11T09:08:49.813Z,64.92
2018-11-11T09:11:17.983Z,63.89
2018-11-11T09:13:46.118Z,63.95
2018-11-11T09:16:14.217Z,63.63
2018-11-11T09:18:42.333Z,63.35
2018-11-11T09:21:10.502Z,63.21
2018-11-11T09:23:38.615Z,61.95
2018-11-11T09:26:06.959Z,61.79
2018-11-11T09:28:35.045Z,61.64
2018-11-11T09:31:03.490Z,60.57
2018-11-11T09:33:31.647Z,61.05
2018-11-11T09:35:59.747Z,61.09
2018-11-11T09:38:27.820Z,60.37
2018-11-11T09:40:55.962Z,60.13
2018-11-11T09:43:24.034Z,60.06
2018-11-11T09:45:52.118Z,59.45
2018-11-11T09:48:20.198Z,59.25
2018-11-11T09:50:48.274Z,59.11
2018-11-11T09:53:16.335Z,58.59
2018-11-11T09:55:44.420Z,57.57
2018-11-11T09:58:12.522Z,57.38
2018-11-11T10:00:40.612Z,57.17
2018-11-11T10:03:13.968Z,57.20
2018-11-11T10:05:45.028Z,57.42
2018-11-11T10:08:20.754Z,56.13
2018-11-11T10:10:54.253Z,56.15
2018-11-11T10:14:27.321Z,56.40
2018-11-11T10:17:03.018Z,56.90
2018-11-11T10:21:40.803Z,57.11
2018-11-11T10:24:18.440Z,56.79
2018-11-11T10:26:52.154Z,57.06
2018-11-11T10:31:33.549Z,56.95
2018-11-11T10:34:05.182Z,56.84
2018-11-11T10:37:36.520Z,57.24
2018-11-11T10:40:11.976Z,57.36
2018-11-11T10:43:18.568Z,57.55
2018-11-11T10:46:04.973Z,57.03
2018-11-11T10:48:36.912Z,57.14
2018-11-11T10:51:06.142Z,57.22
2018-11-11T10:53:34.237Z,56.99
2018-11-11T10:56:02.326Z,56.85
2018-11-11T10:58:30.397Z,57.05
2018-11-11T11:01:03.907Z,56.59
2018-11-11T11:03:34.459Z,56.65
2018-11-11T11:06:03.373Z,56.26
2018-11-11T11:08:31.517Z,55.22
2018-11-11T11:10:59.604Z,54.46
2018-11-11T11:13:28.941Z,54.25
2018-11-11T11:15:57.538Z,47.96
2018-11-11T11:18:25.651Z,41.78
2018-11-11T11:20:53.720Z,38.46
2018-11-11T11:23:21.861Z,38.06
2018-11-11T11:25:49.977Z,37.37
2018-11-11T11:28:18.117Z,37.94
2018-11-11T11:30:46.225Z,36.60
2018-11-11T11:33:14.352Z,34.61
2018-11-11T11:35:42.639Z,34.60
2018-11-11T11:38:10.630Z,40.07
2018-11-11T11:40:38.661Z,44.17
2018-11-11T11:43:06.768Z,46.35
2018-11-11T11:45:34.906Z,47.58
2018-11-11T11:48:03.011Z,48.14
2018-11-11T11:50:31.157Z,49.03
2018-11-11T11:52:59.232Z,49.62
2018-11-11T11:55:27.256Z,50.32
2018-11-11T11:58:27.478Z,50.70
2018-11-11T12:00:55.656Z,51.82
2018-11-11T12:03:23.750Z,51.50
2018-11-11T12:05:51.804Z,51.72
2018-11-11T12:08:19.928Z,51.77
2018-11-11T12:10:48.005Z,51.38
2018-11-11T12:13:16.705Z,51.33
2018-11-11T12:15:45.282Z,51.93
2018-11-11T12:18:13.376Z,52.43
2018-11-11T12:20:42.060Z,52.53
2018-11-11T12:23:10.638Z,52.81
2018-11-11T12:25:39.348Z,53.01
2018-11-11T12:28:07.941Z,53.18
2018-11-11T12:30:36.053Z,53.39
2018-11-11T12:33:04.146Z,53.01
2018-11-11T12:35:32.276Z,52.46
2018-11-11T12:38:00.750Z,53.04
2018-11-11T12:40:28.837Z,52.83
2018-11-11T12:42:56.977Z,52.38
2018-11-11T12:45:25.142Z,52.19
2018-11-11T12:47:53.338Z,51.99
2018-11-11T12:50:21.548Z,52.19
2018-11-11T12:52:49.603Z,51.89
2018-11-11T12:55:17.752Z,51.95
2018-11-11T12:57:45.765Z,51.87
2018-11-11T13:00:15.039Z,52.09
2018-11-11T13:02:43.150Z,51.93
2018-11-11T13:05:11.765Z,51.30
2018-11-11T13:07:39.895Z,51.42
2018-11-11T13:10:10.669Z,52.03
2018-11-11T13:12:38.918Z,52.30
2018-11-11T13:15:08.393Z,52.45
2018-11-11T13:17:36.870Z,52.37
2018-11-11T13:20:06.702Z,52.11
2018-11-11T13:22:34.908Z,52.59
2018-11-11T13:25:02.857Z,52.49
2018-11-11T13:27:31.014Z,52.72
2018-11-11T13:29:59.144Z,52.29
2018-11-11T13:32:27.288Z,52.72
2018-11-11T13:34:55.445Z,52.20
2018-11-11T13:37:23.530Z,52.57
2018-11-11T13:39:51.684Z,52.64
2018-11-11T13:42:19.778Z,52.17
2018-11-11T13:44:47.977Z,52.88
2018-11-11T13:47:17.621Z,51.86
2018-11-11T13:49:45.817Z,51.83
2018-11-11T13:52:14.661Z,52.02
2018-11-11T13:54:42.742Z,52.07
2018-11-11T14:03:45.811Z,53.82
2018-11-11T14:06:31.430Z,53.69
2018-11-11T14:09:32.877Z,53.48
2018-11-11T14:12:00.933Z,53.88
2018-11-11T14:14:29.237Z,54.03
2018-11-11T14:39:15.326Z,54.31
2018-11-11T14:41:43.789Z,54.28
2018-11-11T14:44:11.901Z,53.90
2018-11-11T14:46:40.781Z,54.55
2018-11-11T14:49:09.829Z,54.47
2018-11-11T14:51:37.894Z,53.93
2018-11-11T14:54:06.153Z,54.26
2018-11-11T14:56:34.300Z,54.31
2018-11-11T14:59:02.445Z,54.88
2018-11-11T15:01:30.596Z,54.97
2018-11-11T15:03:58.727Z,54.55
2018-11-11T15:06:26.759Z,54.98
2018-11-11T15:08:54.850Z,54.78
2018-11-11T15:11:22.956Z,54.52
2018-11-11T15:13:51.041Z,54.24
2018-11-11T15:16:19.150Z,54.83
2018-11-11T15:18:47.301Z,55.06
2018-11-11T15:21:15.391Z,54.94
2018-11-11T15:23:43.499Z,55.44
2018-11-11T15:26:11.597Z,55.11
2018-11-11T15:28:39.733Z,55.40
2018-11-11T15:31:07.949Z,55.27
2018-11-11T15:33:35.964Z,55.58
2018-11-11T15:36:04.096Z,55.80
2018-11-11T15:38:32.209Z,55.51
2018-11-11T15:41:00.348Z,56.18
2018-11-11T15:43:28.468Z,56.60
2018-11-11T15:45:56.573Z,56.70
2018-11-11T15:48:24.670Z,56.86
2018-11-11T15:50:52.781Z,57.42
2018-11-11T15:53:20.917Z,56.78
2018-11-11T15:55:49.004Z,57.42
2018-11-11T15:58:17.148Z,57.88
2018-11-11T16:00:45.262Z,57.94
2018-11-11T16:03:13.395Z,57.35
2018-11-11T16:05:41.511Z,57.82
2018-11-11T16:08:09.635Z,57.94
2018-11-11T16:10:37.777Z,58.21
2018-11-11T16:13:05.837Z,58.03
2018-11-11T16:15:35.611Z,58.38
2018-11-11T16:18:05.361Z,58.08
2018-11-11T16:20:33.514Z,58.29
2018-11-11T16:23:02.636Z,58.39
2018-11-11T16:25:30.834Z,58.56
2018-11-11T16:27:58.868Z,58.68
2018-11-11T16:30:28.589Z,58.87
2018-11-11T16:32:57.308Z,58.77
2018-11-11T16:35:26.601Z,58.95
2018-11-11T16:37:54.798Z,59.04
2018-11-11T16:40:24.282Z,59.08
2018-11-11T16:42:52.649Z,59.43
2018-11-11T16:45:22.976Z,59.35
2018-11-11T16:47:51.180Z,59.73
2018-11-11T16:50:21.936Z,59.83
2018-11-11T16:52:50.635Z,59.81
2018-11-11T16:55:20.112Z,59.96
2018-11-11T16:57:48.323Z,60.04
2018-11-11T17:00:19.940Z,59.98
2018-11-11T17:02:48.710Z,60.35
2018-11-11T17:05:18.419Z,60.32
2018-11-11T17:07:46.731Z,60.36
2018-11-11T17:10:16.242Z,60.40
2018-11-11T17:12:45.292Z,60.43
2018-11-11T17:15:15.850Z,60.45
2018-11-11T17:17:43.912Z,60.67
2018-11-11T17:20:14.215Z,60.53
2018-11-11T17:22:42.678Z,60.59
2018-11-11T17:25:12.025Z,60.92
2018-11-11T17:27:40.139Z,60.97
2018-11-11T17:30:10.706Z,60.73
2018-11-11T17:32:38.949Z,60.87
2018-11-11T17:35:07.836Z,60.97
2018-11-11T17:37:35.929Z,60.82
2018-11-11T17:40:05.089Z,61.18
2018-11-11T17:42:33.168Z,61.22
2018-11-11T17:45:01.270Z,61.49
2018-11-11T17:47:29.562Z,60.95
2018-11-11T17:49:57.717Z,60.57
2018-11-11T17:52:26.121Z,60.68
2018-11-11T17:54:54.233Z,60.43
2018-11-11T17:57:22.346Z,60.54
2018-11-11T17:59:50.507Z,60.10
2018-11-11T18:02:18.654Z,60.03
2018-11-11T18:04:46.940Z,60.08
2018-11-11T18:07:15.097Z,59.97
2018-11-11T18:09:43.209Z,59.87
2018-11-11T18:12:11.312Z,59.37
2018-11-11T18:14:39.474Z,59.64
2018-11-11T18:17:07.627Z,59.76
2018-11-11T18:19:35.753Z,59.47
2018-11-11T18:22:03.846Z,59.52
2018-11-11T18:24:31.961Z,59.46
2018-11-11T18:27:00.122Z,59.33
2018-11-11T18:29:28.359Z,59.46
2018-11-11T18:31:56.485Z,59.29
2018-11-11T18:34:24.691Z,59.80
2018-11-11T18:36:52.775Z,59.57
2018-11-11T18:39:20.869Z,59.99
2018-11-11T18:41:49.025Z,60.20
2018-11-11T18:44:17.172Z,60.27
2018-11-11T18:46:45.254Z,60.63
2018-11-11T18:49:13.515Z,60.72
2018-11-11T18:51:41.604Z,60.79
2018-11-11T18:54:09.711Z,60.50
2018-11-11T18:56:37.920Z,60.79
2018-11-11T18:59:06.189Z,61.16
2018-11-11T19:01:34.309Z,61.05
2018-11-11T19:04:02.396Z,60.74
2018-11-11T19:06:30.483Z,60.84
2018-11-11T19:08:58.673Z,60.99
2018-11-11T19:11:26.818Z,61.01
2018-11-11T19:13:54.933Z,60.96
2018-11-11T19:16:23.034Z,60.99
2018-11-11T19:18:51.255Z,61.38
2018-11-11T19:21:19.311Z,61.20
2018-11-11T19:23:47.524Z,61.16
2018-11-11T19:26:15.660Z,61.01
2018-11-11T19:28:43.793Z,61.24
2018-11-11T19:31:11.951Z,60.93
2018-11-11T19:33:40.506Z,61.01
2018-11-11T19:36:08.605Z,61.12
2018-11-11T19:38:36.714Z,61.37
2018-11-11T19:41:05.066Z,61.26
2018-11-11T19:43:33.186Z,60.78
2018-11-11T19:46:01.257Z,61.15
2018-11-11T19:48:29.350Z,61.19
2018-11-11T19:50:57.457Z,61.62
2018-11-11T19:53:25.573Z,61.60
2018-11-11T19:55:53.633Z,61.71
2018-11-11T19:58:21.705Z,61.63
2018-11-11T20:00:49.810Z,61.99
2018-11-11T20:03:17.972Z,61.72
2018-11-11T20:05:46.130Z,61.74
2018-11-11T20:08:14.144Z,61.30
2018-11-11T20:10:42.203Z,61.63
2018-11-11T20:13:10.293Z,61.45
2018-11-11T20:15:38.375Z,61.46
2018-11-11T20:18:06.523Z,61.97
2018-11-11T20:20:38.073Z,62.09
2018-11-11T20:23:06.322Z,61.70
2018-11-11T20:25:34.771Z,62.27
2018-11-11T20:28:02.977Z,61.86
2018-11-11T20:30:32.557Z,62.30
2018-11-11T20:33:00.703Z,61.47
2018-11-11T20:35:30.167Z,61.84
2018-11-11T20:37:58.209Z,61.97
2018-11-11T20:40:27.219Z,61.46
2018-11-11T20:42:55.847Z,61.41
2018-11-11T20:45:26.744Z,62.15
2018-11-11T20:47:55.037Z,62.05
2018-11-11T20:50:24.638Z,62.04
2018-11-11T20:52:54.429Z,62.43
2018-11-11T20:55:22.801Z,62.73
2018-11-11T20:57:51.240Z,62.48
2018-11-11T21:00:20.796Z,62.11
2018-11-11T21:02:48.923Z,62.84
2018-11-11T21:05:19.388Z,62.72
2018-11-11T21:07:47.589Z,62.63
2018-11-11T21:10:17.831Z,62.92
2018-11-11T21:12:45.899Z,63.26
2018-11-11T21:15:18.289Z,62.88
2018-11-11T21:17:46.922Z,63.07
2018-11-11T21:20:17.487Z,63.34
2018-11-11T21:22:45.591Z,63.22
2018-11-11T21:25:13.827Z,63.65
2018-11-11T21:27:42.899Z,63.66
2018-11-11T21:30:14.552Z,63.89
2018-11-11T21:32:42.697Z,63.77
2018-11-11T21:35:11.330Z,63.35
2018-11-11T21:37:39.960Z,63.72
2018-11-11T21:40:09.405Z,63.66
2018-11-11T21:42:38.185Z,63.93
2018-11-11T21:45:07.496Z,63.68
2018-11-11T21:47:35.724Z,63.85
2018-11-11T21:50:04.005Z,63.67
2018-11-11T21:52:32.137Z,63.64
2018-11-11T21:55:00.193Z,64.26
2018-11-11T21:57:29.477Z,64.00
2018-11-11T21:59:57.603Z,64.38
2018-11-11T22:02:25.762Z,64.39
2018-11-11T22:04:53.836Z,64.20
2018-11-11T22:07:21.918Z,64.31
2018-11-11T22:09:50.030Z,63.83
2018-11-11T22:12:18.081Z,64.05
2018-11-11T22:14:46.169Z,64.25
2018-11-11T22:17:14.462Z,64.63
2018-11-11T22:19:42.574Z,64.56
2018-11-11T22:22:10.652Z,64.29
2018-11-11T22:24:38.729Z,64.21
2018-11-11T22:27:06.928Z,64.15
2018-11-11T22:29:35.032Z,64.14
2018-11-11T22:32:03.109Z,64.55
2018-11-11T22:34:31.327Z,64.24
2018-11-11T22:36:59.448Z,64.07
2018-11-11T22:39:27.577Z,63.54
2018-11-11T22:41:55.635Z,64.09
2018-11-11T22:44:23.756Z,64.52
2018-11-11T22:46:51.848Z,64.07
2018-11-11T22:49:19.927Z,63.93
2018-11-11T22:51:47.994Z,64.28
2018-11-11T22:54:16.076Z,63.96
2018-11-11T22:56:44.168Z,63.54
2018-11-11T22:59:12.369Z,63.56
2018-11-11T23:01:40.480Z,63.87
2018-11-11T23:04:08.578Z,63.21
2018-11-11T23:06:36.709Z,64.07
2018-11-11T23:09:08.789Z,64.24
2018-11-11T23:11:36.926Z,63.60
2018-11-11T23:14:05.182Z,64.30
2018-11-11T23:16:33.414Z,64.17
2018-11-11T23:19:01.499Z,64.17
2018-11-11T23:21:29.596Z,64.25
2018-11-11T23:23:57.721Z,64.31
2018-11-11T23:26:25.788Z,64.06
2018-11-11T23:28:53.902Z,64.37
2018-11-11T23:31:21.977Z,64.15
2018-11-11T23:33:50.088Z,64.34
2018-11-11T23:36:18.165Z,64.80
2018-11-11T23:38:46.421Z,64.65
2018-11-11T23:41:14.524Z,64.75
2018-11-11T23:43:42.713Z,65.13
2018-11-11T23:46:10.813Z,64.73
2018-11-11T23:48:38.930Z,65.09
2018-11-11T23:51:07.003Z,65.03
2018-11-11T23:53:35.156Z,65.06
2018-11-11T23:56:03.234Z,64.88
2018-11-11T23:58:31.324Z,64.59
